createdAt,value
2018-11-25T00:00:33.999Z,8.18
2018-11-25T00:01:34.017Z,8.09
2018-11-25T00:02:34.302Z,8.09
2018-11-25T00:03:34.589Z,8.16
2018-11-25T00:04:34.080Z,8.08
2018-11-25T00:05:34.093Z,8.16
2018-11-25T00:06:34.389Z,8.1
2018-11-25T00:07:39.341Z,8.08
2018-11-25T00:08:34.409Z,8.09
2018-11-25T00:09:34.419Z,8.18
2018-11-25T00:10:34.725Z,8.15
2018-11-25T00:11:34.451Z,8.12
2018-11-25T00:12:34.467Z,8.1
2018-11-25T00:13:34.236Z,8.15
2018-11-25T00:14:34.520Z,8.15
2018-11-25T00:15:34.547Z,8.15
2018-11-25T00:16:34.548Z,8.05
2018-11-25T00:17:34.311Z,8.18
2018-11-25T00:18:34.332Z,8.09
2018-11-25T00:19:34.344Z,8.12
2018-11-25T00:20:34.876Z,8.06
2018-11-25T00:21:34.387Z,8.1
2018-11-25T00:22:34.398Z,8.16
2018-11-25T00:23:34.415Z,8.15
2018-11-25T00:24:34.689Z,8.18
2018-11-25T00:25:34.446Z,8.08
2018-11-25T00:26:34.739Z,8.1
2018-11-25T00:27:34.995Z,8.08
2018-11-25T00:28:34.509Z,8.13
2018-11-25T00:29:34.792Z,8.12
2018-11-25T00:30:35.077Z,8.1
2018-11-25T00:31:34.821Z,8.2
2018-11-25T00:32:34.585Z,8.1
2018-11-25T00:33:34.879Z,8.09
2018-11-25T00:34:34.864Z,8.13
2018-11-25T00:35:34.629Z,8.13
2018-11-25T00:36:34.658Z,8.08
2018-11-25T00:37:34.667Z,8.1
2018-11-25T00:38:35.221Z,8.09
2018-11-25T00:39:34.706Z,8.09
2018-11-25T00:40:34.722Z,8.15
2018-11-25T00:41:35.015Z,8.12
2018-11-25T00:42:35.306Z,8.15
2018-11-25T00:43:35.294Z,8.13
2018-11-25T00:44:35.049Z,8.1
2018-11-25T00:45:35.088Z,8.13
2018-11-25T00:46:35.092Z,8.15
2018-11-25T00:47:35.358Z,8.13
2018-11-25T00:48:35.135Z,8.1
2018-11-25T00:49:34.893Z,8.1
2018-11-25T00:50:34.902Z,8.15
2018-11-25T00:51:35.431Z,8.1
2018-11-25T00:52:35.206Z,8.15
2018-11-25T00:53:35.212Z,8.08
2018-11-25T00:54:35.496Z,8.16
2018-11-25T00:55:35.250Z,8.16
2018-11-25T00:56:35.525Z,8.13
2018-11-25T00:57:35.030Z,8.13
2018-11-25T00:58:35.309Z,8.1
2018-11-25T00:59:35.582Z,8.16
2018-11-25T01:00:35.337Z,8.12
2018-11-25T01:01:35.370Z,8.1
2018-11-25T01:02:35.121Z,8.18
2018-11-25T01:03:35.393Z,8.18
2018-11-25T01:04:35.684Z,8.15
2018-11-25T01:05:35.437Z,8.15
2018-11-25T01:06:35.708Z,8.19
2018-11-25T01:07:35.468Z,8.12
2018-11-25T01:08:35.487Z,8.13
2018-11-25T01:09:35.256Z,8.15
2018-11-25T01:10:35.542Z,8.16
2018-11-25T01:11:35.541Z,8.18
2018-11-25T01:12:35.562Z,8.16
2018-11-25T01:13:35.589Z,8.1
2018-11-25T01:14:35.612Z,8.16
2018-11-25T01:15:35.881Z,8.19
2018-11-25T01:16:35.643Z,8.19
2018-11-25T01:17:35.654Z,8.15
2018-11-25T01:18:35.667Z,8.12
2018-11-25T01:19:35.701Z,8.13
2018-11-25T01:20:35.446Z,8.13
2018-11-25T01:21:35.713Z,8.19
2018-11-25T01:22:36.001Z,8.19
2018-11-25T01:23:35.757Z,8.13
2018-11-25T01:24:35.772Z,8.13
2018-11-25T01:25:35.807Z,8.15
2018-11-25T01:26:35.566Z,8.18
2018-11-25T01:27:35.581Z,8.13
2018-11-25T01:28:35.850Z,8.19
2018-11-25T01:29:35.620Z,8.13
2018-11-25T01:30:35.623Z,8.16
2018-11-25T01:31:35.640Z,8.16
2018-11-25T01:32:35.936Z,8.13
2018-11-25T01:33:35.941Z,8.12
2018-11-25T01:34:35.956Z,8.19
2018-11-25T01:35:36.247Z,8.19
2018-11-25T01:36:36.000Z,8.18
2018-11-25T01:37:35.761Z,8.18
2018-11-25T01:38:36.031Z,8.23
2018-11-25T01:39:36.044Z,8.2
2018-11-25T01:40:35.802Z,8.16
2018-11-25T01:41:35.821Z,8.2
2018-11-25T01:42:36.118Z,8.18
2018-11-25T01:43:36.123Z,8.15
2018-11-25T01:44:36.150Z,8.19
2018-11-25T01:45:36.157Z,8.15
2018-11-25T01:46:36.184Z,8.19
2018-11-25T01:47:35.958Z,8.19
2018-11-25T01:48:35.952Z,8.19
2018-11-25T01:49:36.499Z,8.15
2018-11-25T01:50:36.504Z,8.19
2018-11-25T01:51:36.017Z,8.18
2018-11-25T01:52:36.284Z,8.16
2018-11-25T01:53:36.299Z,8.16
2018-11-25T01:54:36.588Z,8.12
2018-11-25T01:55:36.605Z,8.12
2018-11-25T01:56:36.350Z,8.13
2018-11-25T01:57:36.119Z,8.16
2018-11-25T01:58:36.145Z,8.13
2018-11-25T01:59:36.420Z,8.18
2018-11-25T02:00:36.428Z,8.16
2018-11-25T02:01:36.458Z,8.23
2018-11-25T02:02:36.208Z,8.15
2018-11-25T02:03:36.483Z,8.19
2018-11-25T02:04:36.776Z,8.23
2018-11-25T02:05:36.532Z,8.15
2018-11-25T02:06:36.814Z,8.15
2018-11-25T02:07:36.559Z,8.23
2018-11-25T02:08:36.370Z,8.16
2018-11-25T02:09:36.588Z,8.2
2018-11-25T02:10:36.345Z,8.24
2018-11-25T02:11:36.369Z,8.18
2018-11-25T02:12:36.909Z,8.19
2018-11-25T02:13:36.667Z,8.2
2018-11-25T02:14:36.950Z,8.24
2018-11-25T02:15:36.445Z,8.19
2018-11-25T02:16:36.712Z,8.2
2018-11-25T02:17:36.476Z,8.19
2018-11-25T02:18:37.008Z,8.2
2018-11-25T02:19:37.037Z,8.19
2018-11-25T02:20:36.818Z,8.18
2018-11-25T02:21:36.554Z,8.24
2018-11-25T02:22:36.580Z,8.26
2018-11-25T02:23:36.848Z,8.19
2018-11-25T02:24:36.858Z,8.19
2018-11-25T02:25:37.147Z,8.2
2018-11-25T02:26:37.148Z,8.2
2018-11-25T02:27:36.911Z,8.18
2018-11-25T02:28:36.943Z,8.16
2018-11-25T02:29:36.963Z,8.2
2018-11-25T02:30:36.724Z,8.15
2018-11-25T02:31:36.990Z,8.19
2018-11-25T02:32:37.267Z,8.15
2018-11-25T02:33:36.760Z,8.23
2018-11-25T02:34:37.309Z,8.23
2018-11-25T02:35:37.067Z,8.19
2018-11-25T02:36:37.093Z,8.2
2018-11-25T02:37:36.831Z,8.19
2018-11-25T02:38:37.111Z,8.16
2018-11-25T02:39:37.141Z,8.23
2018-11-25T02:40:36.893Z,8.2
2018-11-25T02:41:36.913Z,8.18
2018-11-25T02:42:36.927Z,8.26
2018-11-25T02:43:37.205Z,8.18
2018-11-25T02:44:37.231Z,8.2
2018-11-25T02:45:36.988Z,8.2
2018-11-25T02:46:37.255Z,8.24
2018-11-25T02:47:37.016Z,8.18
2018-11-25T02:48:37.035Z,8.19
2018-11-25T02:49:37.322Z,8.23
2018-11-25T02:50:37.346Z,8.2
2018-11-25T02:51:37.350Z,8.16
2018-11-25T02:52:37.380Z,8.23
2018-11-25T02:53:37.658Z,8.2
2018-11-25T02:54:37.141Z,8.18
2018-11-25T02:55:37.163Z,8.19
2018-11-25T02:56:37.180Z,8.23
2018-11-25T02:57:37.206Z,8.18
2018-11-25T02:58:37.488Z,8.2
2018-11-25T02:59:37.487Z,8.26
2018-11-25T03:00:37.513Z,8.13
2018-11-25T03:01:37.535Z,8.27
2018-11-25T03:02:37.563Z,8.19
2018-11-25T03:03:37.311Z,8.27
2018-11-25T03:04:37.331Z,8.19
2018-11-25T03:05:37.349Z,8.13
2018-11-25T03:06:37.645Z,8.19
2018-11-25T03:07:37.659Z,8.18
2018-11-25T03:08:37.404Z,8.18
2018-11-25T03:09:37.424Z,8.26
2018-11-25T03:10:37.715Z,8.2
2018-11-25T03:11:37.450Z,8.24
2018-11-25T03:12:37.992Z,8.24
2018-11-25T03:13:38.015Z,8.26
2018-11-25T03:14:38.062Z,8.27
2018-11-25T03:15:37.784Z,8.18
2018-11-25T03:16:37.803Z,8.26
2018-11-25T03:17:37.828Z,8.18
2018-11-25T03:18:38.122Z,8.19
2018-11-25T03:19:37.865Z,8.28
2018-11-25T03:20:37.622Z,8.26
2018-11-25T03:21:37.646Z,8.23
2018-11-25T03:22:37.913Z,8.26
2018-11-25T03:23:37.930Z,8.28
2018-11-25T03:24:37.951Z,8.28
2018-11-25T03:25:37.717Z,8.24
2018-11-25T03:26:37.732Z,8.3
2018-11-25T03:27:37.743Z,8.24
2018-11-25T03:28:38.306Z,8.28
2018-11-25T03:29:38.052Z,8.27
2018-11-25T03:30:38.060Z,8.26
2018-11-25T03:31:38.349Z,8.27
2018-11-25T03:32:38.345Z,8.26
2018-11-25T03:33:38.125Z,8.33
2018-11-25T03:34:38.134Z,8.3
2018-11-25T03:35:38.420Z,8.3
2018-11-25T03:36:38.432Z,8.31
2018-11-25T03:37:38.188Z,8.28
2018-11-25T03:38:38.251Z,8.24
2018-11-25T03:39:38.222Z,8.33
2018-11-25T03:40:38.242Z,8.33
2018-11-25T03:41:38.006Z,8.31
2018-11-25T03:42:38.274Z,8.26
2018-11-25T03:43:38.037Z,8.28
2018-11-25T03:44:38.311Z,8.3
2018-11-25T03:45:38.338Z,8.33
2018-11-25T03:46:38.097Z,8.31
2018-11-25T03:47:38.635Z,8.27
2018-11-25T03:48:38.640Z,8.28
2018-11-25T03:49:38.416Z,8.28
2018-11-25T03:50:38.429Z,8.26
2018-11-25T03:51:38.178Z,8.33
2018-11-25T03:52:38.210Z,8.34
2018-11-25T03:53:38.478Z,8.28
2018-11-25T03:54:38.515Z,8.3
2018-11-25T03:55:38.527Z,8.31
2018-11-25T03:56:38.543Z,8.3
2018-11-25T03:57:38.288Z,8.3
2018-11-25T03:58:38.574Z,8.3
2018-11-25T03:59:38.857Z,8.28
2018-11-25T04:00:38.350Z,8.28
2018-11-25T04:01:38.644Z,8.31
2018-11-25T04:02:38.711Z,8.3
2018-11-25T04:03:38.396Z,8.31
2018-11-25T04:04:38.674Z,8.26
2018-11-25T04:05:38.967Z,8.3
2018-11-25T04:06:38.712Z,8.27
2018-11-25T04:07:38.473Z,8.27
2018-11-25T04:08:38.495Z,8.31
2018-11-25T04:09:38.763Z,8.27
2018-11-25T04:10:39.043Z,8.27
2018-11-25T04:11:38.811Z,8.24
2018-11-25T04:12:39.090Z,8.27
2018-11-25T04:13:38.850Z,8.27
2018-11-25T04:14:39.117Z,8.26
2018-11-25T04:15:38.876Z,8.3
2018-11-25T04:16:38.897Z,8.26
2018-11-25T04:17:38.656Z,8.3
2018-11-25T04:18:38.980Z,8.27
2018-11-25T04:19:38.695Z,8.27
2018-11-25T04:20:38.717Z,8.28
2018-11-25T04:21:38.742Z,8.27
2018-11-25T04:22:39.006Z,8.26
2018-11-25T04:23:39.025Z,8.26
2018-11-25T04:24:39.290Z,8.27
2018-11-25T04:25:39.062Z,8.3
2018-11-25T04:26:39.091Z,8.19
2018-11-25T04:27:38.838Z,8.23
2018-11-25T04:28:39.121Z,8.27
2018-11-25T04:29:38.866Z,8.27
2018-11-25T04:30:38.883Z,8.26
2018-11-25T04:31:39.186Z,8.26
2018-11-25T04:32:38.933Z,8.27
2018-11-25T04:33:38.936Z,8.26
2018-11-25T04:34:39.488Z,8.23
2018-11-25T04:35:38.987Z,8.23
2018-11-25T04:36:39.256Z,8.24
2018-11-25T04:37:39.021Z,8.26
2018-11-25T04:38:39.301Z,8.19
2018-11-25T04:39:39.321Z,8.24
2018-11-25T04:40:39.595Z,8.19
2018-11-25T04:41:39.614Z,8.23
2018-11-25T04:42:39.117Z,8.23
2018-11-25T04:43:39.385Z,8.18
2018-11-25T04:44:39.146Z,8.23
2018-11-25T04:45:39.445Z,8.23
2018-11-25T04:46:39.445Z,8.18
2018-11-25T04:47:39.469Z,8.27
2018-11-25T04:48:39.224Z,8.27
2018-11-25T04:49:39.242Z,8.24
2018-11-25T04:50:39.524Z,8.26
2018-11-25T04:51:39.801Z,8.24
2018-11-25T04:52:39.558Z,8.23
2018-11-25T04:53:39.569Z,8.18
2018-11-25T04:54:39.335Z,8.2
2018-11-25T04:55:39.348Z,8.27
2018-11-25T04:56:39.360Z,8.2
2018-11-25T04:57:39.649Z,8.18
2018-11-25T04:58:39.420Z,8.19
2018-11-25T04:59:39.671Z,8.26
2018-11-25T05:00:39.433Z,8.2
2018-11-25T05:01:39.981Z,8.19
2018-11-25T05:02:39.743Z,8.13
2018-11-25T05:03:39.493Z,8.26
2018-11-25T05:04:39.503Z,8.19
2018-11-25T05:05:39.802Z,8.19
2018-11-25T05:06:39.817Z,8.23
2018-11-25T05:07:39.584Z,8.2
2018-11-25T05:08:39.851Z,8.18
2018-11-25T05:09:40.116Z,8.16
2018-11-25T05:10:39.885Z,8.23
2018-11-25T05:11:40.160Z,8.18
2018-11-25T05:12:40.190Z,8.2
2018-11-25T05:13:39.939Z,8.15
2018-11-25T05:14:39.691Z,8.18
2018-11-25T05:15:39.963Z,8.15
2018-11-25T05:16:39.727Z,8.18
2018-11-25T05:17:39.999Z,8.2
2018-11-25T05:18:39.757Z,8.16
2018-11-25T05:19:39.783Z,8.1
2018-11-25T05:20:40.072Z,8.2
2018-11-25T05:21:40.341Z,8.2
2018-11-25T05:22:40.089Z,8.1
2018-11-25T05:23:39.848Z,8.12
2018-11-25T05:24:39.881Z,8.2
2018-11-25T05:25:40.149Z,8.13
2018-11-25T05:26:40.164Z,8.13
2018-11-25T05:27:40.452Z,8.1
2018-11-25T05:28:40.227Z,8.13
2018-11-25T05:29:40.219Z,8.12
2018-11-25T05:30:40.238Z,8.18
2018-11-25T05:31:40.269Z,8.19
2018-11-25T05:32:40.266Z,8.19
2018-11-25T05:33:40.036Z,8.19
2018-11-25T05:34:40.057Z,8.18
2018-11-25T05:35:40.082Z,8.19
2018-11-25T05:36:40.349Z,8.16
2018-11-25T05:37:40.626Z,8.18
2018-11-25T05:38:40.637Z,8.15
2018-11-25T05:39:40.401Z,8.15
2018-11-25T05:40:40.162Z,8.15
2018-11-25T05:41:40.443Z,8.16
2018-11-25T05:42:40.724Z,8.13
2018-11-25T05:43:40.266Z,8.16
2018-11-25T05:44:40.510Z,8.13
2018-11-25T05:45:40.768Z,8.1
2018-11-25T05:46:40.787Z,8.12
2018-11-25T05:47:40.285Z,8.15
2018-11-25T05:48:40.317Z,8.09
2018-11-25T05:49:41.458Z,8.18
2018-11-25T05:50:40.343Z,8.15
2018-11-25T05:51:40.365Z,8.09
2018-11-25T05:52:40.401Z,8.12
2018-11-25T05:53:40.408Z,8.09
2018-11-25T05:54:40.677Z,8.15
2018-11-25T05:55:40.692Z,8.15
2018-11-25T05:56:40.723Z,8.15
2018-11-25T05:57:40.475Z,8.12
2018-11-25T05:58:40.746Z,8.16
2018-11-25T05:59:41.024Z,8.13
2018-11-25T06:00:40.528Z,8.13
2018-11-25T06:01:41.060Z,8.19
2018-11-25T06:02:40.827Z,8.13
2018-11-25T06:03:41.093Z,8.1
2018-11-25T06:04:40.866Z,8.1
2018-11-25T06:05:40.889Z,8.08
2018-11-25T06:06:40.904Z,8.16
2018-11-25T06:07:40.911Z,8.16
2018-11-25T06:08:40.925Z,8.18
2018-11-25T06:09:41.203Z,8.16
2018-11-25T06:10:40.960Z,8.15
2018-11-25T06:11:40.722Z,8.06
2018-11-25T06:12:40.997Z,8.1
2018-11-25T06:13:40.759Z,8.09
2018-11-25T06:14:40.785Z,8.13
2018-11-25T06:15:41.063Z,8.1
2018-11-25T06:16:41.089Z,8.06
2018-11-25T06:17:41.102Z,8.16
2018-11-25T06:18:41.127Z,8.08
2018-11-25T06:19:41.134Z,8.12
2018-11-25T06:20:40.885Z,8.1
2018-11-25T06:21:41.432Z,8.09
2018-11-25T06:22:40.922Z,8.1
2018-11-25T06:23:41.203Z,8.16
2018-11-25T06:24:40.968Z,8.18
2018-11-25T06:25:41.022Z,8.1
2018-11-25T06:26:41.522Z,8.1
2018-11-25T06:27:43.048Z,8.1
2018-11-25T06:28:41.292Z,8.13
2018-11-25T06:29:41.572Z,8.13
2018-11-25T06:30:41.337Z,8.26
2018-11-25T06:31:41.087Z,8.12
2018-11-25T06:32:41.109Z,8.09
2018-11-25T06:33:41.641Z,8.08
2018-11-25T06:34:41.147Z,8.09
2018-11-25T06:35:41.684Z,8.15
2018-11-25T06:36:41.446Z,8.1
2018-11-25T06:37:41.728Z,8.08
2018-11-25T06:38:41.220Z,8.12
2018-11-25T06:39:41.246Z,8.12
2018-11-25T06:40:41.249Z,8.16
2018-11-25T06:41:41.537Z,8.15
2018-11-25T06:42:41.556Z,8.13
2018-11-25T06:43:41.567Z,8.16
2018-11-25T06:44:41.327Z,8.2
2018-11-25T06:45:41.875Z,8.1
2018-11-25T06:46:41.619Z,8.08
2018-11-25T06:47:41.633Z,8.13
2018-11-25T06:48:41.667Z,8.08
2018-11-25T06:49:41.680Z,8.09
2018-11-25T06:50:41.437Z,8.12
2018-11-25T06:51:41.708Z,8.16
2018-11-25T06:52:41.475Z,8.13
2018-11-25T06:53:42.028Z,8.1
2018-11-25T06:54:42.018Z,8.09
2018-11-25T06:55:41.794Z,8.1
2018-11-25T06:56:41.817Z,8.12
2018-11-25T06:57:41.834Z,8.06
2018-11-25T06:58:42.115Z,8.12
2018-11-25T06:59:41.600Z,8.1
2018-11-25T07:00:41.616Z,8.12
2018-11-25T07:01:41.897Z,8.09
2018-11-25T07:02:41.905Z,8.24
2018-11-25T07:03:41.923Z,8.24
2018-11-25T07:04:42.220Z,8.1
2018-11-25T07:05:41.978Z,8.13
2018-11-25T07:06:41.979Z,8.12
2018-11-25T07:07:41.745Z,8.1
2018-11-25T07:08:42.287Z,8.05
2018-11-25T07:09:42.046Z,8.08
2018-11-25T07:10:42.320Z,8.08
2018-11-25T07:11:42.087Z,8.12
2018-11-25T07:12:42.357Z,8.08
2018-11-25T07:13:42.106Z,8.1
2018-11-25T07:14:41.866Z,8.06
2018-11-25T07:15:42.415Z,8.12
2018-11-25T07:16:41.929Z,8.09
2018-11-25T07:17:41.929Z,8.2
2018-11-25T07:18:42.197Z,8.18
2018-11-25T07:19:42.214Z,8.18
2018-11-25T07:20:42.244Z,8.13
2018-11-25T07:21:42.253Z,8.09
2018-11-25T07:22:42.282Z,8.1
2018-11-25T07:23:42.348Z,8.06
2018-11-25T07:24:42.045Z,8.12
2018-11-25T07:25:42.070Z,8.06
2018-11-25T07:26:42.101Z,8.1
2018-11-25T07:27:42.365Z,8.08
2018-11-25T07:28:42.644Z,8.16
2018-11-25T07:29:42.662Z,8.13
2018-11-25T07:30:42.414Z,8.18
2018-11-25T07:31:42.436Z,8.13
2018-11-25T07:32:42.462Z,8.09
2018-11-25T07:33:42.471Z,8.13
2018-11-25T07:34:42.231Z,8.12
2018-11-25T07:35:42.248Z,8.18
2018-11-25T07:36:42.265Z,8.06
2018-11-25T07:37:42.327Z,8.09
2018-11-25T07:38:42.565Z,8.05
2018-11-25T07:39:42.597Z,8.12
2018-11-25T07:40:42.597Z,8.16
2018-11-25T07:41:42.631Z,8.16
2018-11-25T07:42:42.652Z,8.09
2018-11-25T07:43:42.401Z,8.15
2018-11-25T07:44:42.420Z,8.1
2018-11-25T07:45:42.425Z,8.15
2018-11-25T07:46:42.721Z,8.06
2018-11-25T07:47:42.722Z,8.08
2018-11-25T07:48:42.486Z,8.15
2018-11-25T07:49:42.777Z,8.18
2018-11-25T07:50:42.778Z,8.09
2018-11-25T07:51:43.057Z,8.09
2018-11-25T07:52:42.827Z,8.08
2018-11-25T07:53:43.106Z,8.13
2018-11-25T07:54:42.869Z,8.08
2018-11-25T07:55:42.886Z,8.13
2018-11-25T07:56:42.634Z,8.12
2018-11-25T07:57:42.927Z,8.1
2018-11-25T07:58:42.924Z,8.16
2018-11-25T07:59:42.940Z,8.13
2018-11-25T08:00:43.221Z,8.1
2018-11-25T08:01:43.028Z,8.13
2018-11-25T08:02:46.594Z,8.13
2018-11-25T08:03:43.283Z,8.1
2018-11-25T08:04:43.048Z,8.12
2018-11-25T08:05:43.328Z,8.08
2018-11-25T08:06:43.080Z,8.18
2018-11-25T08:07:42.835Z,8.08
2018-11-25T08:08:42.860Z,8.18
2018-11-25T08:09:43.137Z,8.2
2018-11-25T08:10:43.155Z,8.16
2018-11-25T08:11:43.415Z,8.18
2018-11-25T08:12:43.450Z,8.16
2018-11-25T08:13:42.936Z,8.15
2018-11-25T08:14:42.963Z,8.13
2018-11-25T08:15:42.979Z,8.12
2018-11-25T08:16:43.532Z,8.16
2018-11-25T08:17:43.016Z,8.12
2018-11-25T08:18:43.038Z,8.19
2018-11-25T08:19:43.308Z,8.13
2018-11-25T08:20:43.093Z,8.15
2018-11-25T08:21:43.605Z,8.18
2018-11-25T08:22:43.371Z,8.18
2018-11-25T08:23:43.129Z,8.15
2018-11-25T08:24:43.145Z,8.15
2018-11-25T08:25:43.421Z,8.15
2018-11-25T08:26:43.443Z,8.19
2018-11-25T08:27:43.723Z,8.18
2018-11-25T08:28:43.484Z,8.18
2018-11-25T08:29:43.754Z,8.18
2018-11-25T08:30:43.514Z,8.18
2018-11-25T08:31:43.532Z,8.19
2018-11-25T08:32:43.563Z,8.19
2018-11-25T08:33:43.622Z,8.2
2018-11-25T08:34:43.329Z,8.2
2018-11-25T08:35:43.344Z,8.26
2018-11-25T08:36:43.625Z,8.23
2018-11-25T08:37:43.893Z,8.24
2018-11-25T08:38:43.914Z,8.15
2018-11-25T08:39:43.942Z,8.2
2018-11-25T08:40:43.701Z,8.26
2018-11-25T08:41:43.714Z,8.24
2018-11-25T08:42:43.483Z,8.26
2018-11-25T08:43:43.486Z,8.2
2018-11-25T08:44:43.772Z,8.23
2018-11-25T08:45:43.777Z,8.26
2018-11-25T08:46:44.070Z,8.2
2018-11-25T08:47:43.819Z,8.23
2018-11-25T08:48:43.849Z,8.23
2018-11-25T08:49:43.864Z,8.27
2018-11-25T08:50:43.871Z,8.28
2018-11-25T08:51:43.999Z,8.26
2018-11-25T08:52:44.163Z,8.26
2018-11-25T08:53:43.930Z,8.33
2018-11-25T08:54:43.682Z,8.28
2018-11-25T08:55:43.706Z,8.33
2018-11-25T08:56:43.738Z,8.28
2018-11-25T08:57:43.999Z,8.3
2018-11-25T08:58:44.017Z,8.33
2018-11-25T08:59:44.291Z,8.28
2018-11-25T09:00:44.050Z,8.36
2018-11-25T09:01:44.069Z,8.34
2018-11-25T09:02:44.089Z,8.28
2018-11-25T09:03:44.121Z,8.38
2018-11-25T09:04:44.136Z,8.33
2018-11-25T09:05:44.145Z,8.37
2018-11-25T09:06:44.165Z,8.44
2018-11-25T09:07:43.944Z,8.44
2018-11-25T09:08:43.966Z,8.33
2018-11-25T09:09:44.015Z,8.36
2018-11-25T09:10:44.496Z,8.37
2018-11-25T09:11:44.522Z,8.38
2018-11-25T09:12:44.285Z,8.36
2018-11-25T09:13:44.031Z,8.41
2018-11-25T09:14:44.313Z,8.45
2018-11-25T09:15:44.330Z,8.38
2018-11-25T09:16:44.094Z,8.36
2018-11-25T09:17:44.112Z,8.45
2018-11-25T09:18:44.382Z,8.51
2018-11-25T09:19:44.141Z,8.42
2018-11-25T09:20:44.430Z,8.49
2018-11-25T09:21:44.181Z,8.56
2018-11-25T09:22:44.469Z,8.48
2018-11-25T09:23:44.737Z,8.63
2018-11-25T09:24:44.758Z,8.56
2018-11-25T09:25:44.256Z,8.56
2018-11-25T09:26:44.269Z,8.6
2018-11-25T09:27:44.554Z,8.58
2018-11-25T09:28:44.575Z,8.61
2018-11-25T09:29:44.321Z,8.7
2018-11-25T09:30:44.624Z,8.73
2018-11-25T09:31:44.628Z,8.78
2018-11-25T09:32:44.374Z,8.74
2018-11-25T09:33:44.654Z,8.71
2018-11-25T09:34:44.749Z,8.88
2018-11-25T09:35:44.715Z,8.94
2018-11-25T09:36:44.715Z,8.97
2018-11-25T09:37:44.480Z,8.95
2018-11-25T09:38:44.501Z,9
2018-11-25T09:39:44.501Z,8.95
2018-11-25T09:40:44.882Z,9.06
2018-11-25T09:41:44.799Z,9.16
2018-11-25T09:42:44.557Z,9.22
2018-11-25T09:43:44.834Z,9.21
2018-11-25T09:44:44.857Z,9.18
2018-11-25T09:45:44.881Z,9.21
2018-11-25T09:46:47.592Z,9.22
2018-11-25T09:47:45.163Z,9.23
2018-11-25T09:48:44.677Z,9.28
2018-11-25T09:49:44.952Z,9.32
2018-11-25T09:50:44.978Z,9.39
2018-11-25T09:51:44.724Z,9.44
2018-11-25T09:52:45.006Z,9.39
2018-11-25T09:53:44.761Z,9.44
2018-11-25T09:54:44.777Z,9.41
2018-11-25T09:55:45.324Z,9.37
2018-11-25T09:56:45.357Z,9.37
2018-11-25T09:57:45.102Z,9.37
2018-11-25T09:58:45.118Z,9.37
2018-11-25T09:59:44.877Z,9.31
2018-11-25T10:00:45.153Z,9.34
2018-11-25T10:01:45.186Z,9.29
2018-11-25T10:02:45.192Z,9.21
2018-11-25T10:03:44.942Z,9.21
2018-11-25T10:04:45.489Z,9.25
2018-11-25T10:05:45.513Z,9.28
2018-11-25T10:06:44.999Z,9.25
2018-11-25T10:07:45.537Z,9.28
2018-11-25T10:08:45.055Z,9.23
2018-11-25T10:09:45.057Z,9.18
2018-11-25T10:10:52.369Z,9.16
2018-11-25T10:11:45.102Z,9.14
2018-11-25T10:12:45.117Z,9.14
2018-11-25T10:13:45.649Z,9.18
2018-11-25T10:14:45.680Z,9.18
2018-11-25T10:15:45.679Z,9.18
2018-11-25T10:16:45.194Z,9.16
2018-11-25T10:17:45.466Z,9.25
2018-11-25T10:18:45.228Z,9.19
2018-11-25T10:19:45.516Z,9.22
2018-11-25T10:20:45.778Z,9.14
2018-11-25T10:21:45.537Z,9.18
2018-11-25T10:22:45.555Z,9.11
2018-11-25T10:23:45.335Z,9.18
2018-11-25T10:24:45.590Z,9.21
2018-11-25T10:25:45.613Z,9.18
2018-11-25T10:26:45.897Z,9.14
2018-11-25T10:27:45.402Z,9.22
2018-11-25T10:28:45.415Z,9.14
2018-11-25T10:29:45.425Z,9.19
2018-11-25T10:30:45.704Z,9.13
2018-11-25T10:31:45.723Z,9.19
2018-11-25T10:32:46.794Z,9.21
2018-11-25T10:33:45.497Z,9.25
2018-11-25T10:34:45.774Z,9.16
2018-11-25T10:35:46.050Z,9.29
2018-11-25T10:36:45.830Z,9.25
2018-11-25T10:37:46.098Z,9.31
2018-11-25T10:38:45.607Z,9.28
2018-11-25T10:39:46.130Z,9.28
2018-11-25T10:40:45.888Z,9.26
2018-11-25T10:41:46.163Z,9.25
2018-11-25T10:42:45.668Z,9.28
2018-11-25T10:43:45.941Z,9.28
2018-11-25T10:44:45.957Z,9.34
2018-11-25T10:45:45.975Z,9.32
2018-11-25T10:46:46.000Z,9.34
2018-11-25T10:47:46.287Z,9.39
2018-11-25T10:48:46.309Z,9.34
2018-11-25T10:49:46.073Z,9.39
2018-11-25T10:50:51.044Z,9.4
2018-11-25T10:51:46.157Z,9.46
2018-11-25T10:52:46.380Z,9.44
2018-11-25T10:53:45.873Z,9.43
2018-11-25T10:54:45.890Z,9.46
2018-11-25T10:55:46.165Z,9.34
2018-11-25T10:56:46.185Z,9.41
2018-11-25T10:57:45.957Z,9.39
2018-11-25T10:58:46.220Z,9.46
2018-11-25T10:59:45.995Z,9.46
2018-11-25T11:00:46.269Z,9.47
2018-11-25T11:01:46.072Z,9.47
2018-11-25T11:02:46.556Z,9.48
2018-11-25T11:03:46.059Z,9.55
2018-11-25T11:04:46.336Z,9.54
2018-11-25T11:05:46.415Z,9.55
2018-11-25T11:06:46.370Z,9.56
2018-11-25T11:07:46.403Z,9.55
2018-11-25T11:08:46.677Z,9.59
2018-11-25T11:09:46.691Z,9.66
2018-11-25T11:10:46.191Z,9.64
2018-11-25T11:11:46.743Z,9.73
2018-11-25T11:12:46.481Z,9.68
2018-11-25T11:13:46.501Z,9.66
2018-11-25T11:14:46.581Z,9.73
2018-11-25T11:15:46.792Z,9.77
2018-11-25T11:16:53.670Z,9.72
2018-11-25T11:17:46.585Z,9.72
2018-11-25T11:18:46.597Z,9.72
2018-11-25T11:19:46.877Z,9.69
2018-11-25T11:20:46.635Z,9.73
2018-11-25T11:21:46.403Z,9.68
2018-11-25T11:22:46.410Z,9.69
2018-11-25T11:23:46.686Z,9.72
2018-11-25T11:24:46.972Z,9.66
2018-11-25T11:25:46.475Z,9.73
2018-11-25T11:26:46.492Z,9.72
2018-11-25T11:27:47.025Z,9.68
2018-11-25T11:28:46.833Z,9.73
2018-11-25T11:29:46.804Z,9.64
2018-11-25T11:30:46.821Z,9.68
2018-11-25T11:31:46.578Z,9.64
2018-11-25T11:32:46.873Z,9.54
2018-11-25T11:33:46.878Z,9.58
2018-11-25T11:34:46.635Z,9.58
2018-11-25T11:35:46.658Z,9.58
2018-11-25T11:36:46.939Z,9.58
2018-11-25T11:37:46.685Z,9.5
2018-11-25T11:38:47.243Z,9.48
2018-11-25T11:39:46.764Z,9.48
2018-11-25T11:40:46.746Z,9.47
2018-11-25T11:41:47.276Z,9.44
2018-11-25T11:42:46.791Z,9.46
2018-11-25T11:43:47.328Z,9.47
2018-11-25T11:44:47.076Z,9.54
2018-11-25T11:45:46.838Z,9.44
2018-11-25T11:46:47.378Z,9.5
2018-11-25T11:47:47.141Z,9.46
2018-11-25T11:48:46.897Z,9.41
2018-11-25T11:49:47.177Z,9.43
2018-11-25T11:50:47.203Z,9.36
2018-11-25T11:51:46.946Z,9.4
2018-11-25T11:52:47.487Z,9.43
2018-11-25T11:53:47.254Z,9.4
2018-11-25T11:54:47.273Z,9.4
2018-11-25T11:55:47.543Z,9.41
2018-11-25T11:56:47.303Z,9.37
2018-11-25T11:57:47.336Z,9.37
2018-11-25T11:58:47.083Z,9.29
2018-11-25T11:59:47.095Z,9.31
2018-11-25T12:00:47.132Z,9.31
2018-11-25T12:01:47.137Z,9.32
2018-11-25T12:02:47.417Z,9.26
2018-11-25T12:03:47.689Z,9.22
2018-11-25T12:04:47.199Z,9.25
2018-11-25T12:05:47.791Z,9.23
2018-11-25T12:06:47.238Z,9.28
2018-11-25T12:07:47.766Z,9.26
2018-11-25T12:08:47.521Z,9.29
2018-11-25T12:09:47.804Z,9.23
2018-11-25T12:10:47.559Z,9.23
2018-11-25T12:11:47.578Z,9.23
2018-11-25T12:12:47.614Z,9.25
2018-11-25T12:13:47.885Z,9.29
2018-11-25T12:14:50.136Z,9.23
2018-11-25T12:15:47.653Z,9.26
2018-11-25T12:16:47.672Z,9.18
2018-11-25T12:17:47.429Z,9.25
2018-11-25T12:18:47.728Z,9.23
2018-11-25T12:19:47.993Z,9.23
2018-11-25T12:20:47.752Z,9.1
2018-11-25T12:21:47.777Z,9.14
2018-11-25T12:22:47.783Z,9.26
2018-11-25T12:23:48.067Z,9.14
2018-11-25T12:24:47.562Z,9.23
2018-11-25T12:25:47.581Z,9.19
2018-11-25T12:26:47.880Z,9.11
2018-11-25T12:27:47.885Z,9.18
2018-11-25T12:28:48.160Z,9.21
2018-11-25T12:29:47.918Z,9.13
2018-11-25T12:30:47.937Z,9.08
2018-11-25T12:31:47.964Z,9.03
2018-11-25T12:32:47.978Z,9.08
2018-11-25T12:33:47.993Z,9.08
2018-11-25T12:34:47.745Z,9.02
2018-11-25T12:35:47.782Z,9.06
2018-11-25T12:36:48.056Z,9.06
2018-11-25T12:37:47.824Z,9.04
2018-11-25T12:38:47.834Z,9.03
2018-11-25T12:39:48.357Z,9.06
2018-11-25T12:40:48.122Z,9.02
2018-11-25T12:41:48.134Z,9.08
2018-11-25T12:42:48.161Z,9.04
2018-11-25T12:43:48.167Z,9.04
2018-11-25T12:44:48.460Z,9.03
2018-11-25T12:45:47.955Z,8.99
2018-11-25T12:46:47.966Z,9.08
2018-11-25T12:47:47.987Z,9.02
2018-11-25T12:48:48.272Z,9
2018-11-25T12:49:48.283Z,9.03
2018-11-25T12:50:48.577Z,9
2018-11-25T12:51:48.324Z,9
2018-11-25T12:52:48.345Z,8.97
2018-11-25T12:53:48.355Z,8.94
2018-11-25T12:54:48.386Z,9
2018-11-25T12:55:48.144Z,8.95
2018-11-25T12:56:55.789Z,9.02
2018-11-25T12:57:48.178Z,8.94
2018-11-25T12:58:48.466Z,9
2018-11-25T12:59:48.723Z,9
2018-11-25T13:00:48.497Z,8.94
2018-11-25T13:01:48.252Z,8.95
2018-11-25T13:02:48.539Z,9.02
2018-11-25T13:03:48.550Z,8.92
2018-11-25T13:04:48.562Z,8.97
2018-11-25T13:05:51.058Z,9
2018-11-25T13:06:48.610Z,8.95
2018-11-25T13:07:48.616Z,8.97
2018-11-25T13:08:48.634Z,8.99
2018-11-25T13:09:48.918Z,8.97
2018-11-25T13:10:48.673Z,9
2018-11-25T13:11:54.955Z,9
2018-11-25T13:12:48.456Z,9.02
2018-11-25T13:13:48.727Z,9.04
2018-11-25T13:14:48.505Z,8.95
2018-11-25T13:15:48.765Z,9
2018-11-25T13:16:48.530Z,9.04
2018-11-25T13:17:49.129Z,8.99
2018-11-25T13:18:48.829Z,9.04
2018-11-25T13:19:48.837Z,9
2018-11-25T13:20:48.857Z,9.04
2018-11-25T13:21:48.888Z,9.06
2018-11-25T13:22:48.946Z,9.04
2018-11-25T13:23:48.914Z,9.1